Time;durP1;ratioP1;P1;durP2;ratioP2;P2;SDS_P1;SDS_P2;PMS_P1;PMS_P2;Temp;Humidity;BMP_temperature;BMP_pressure;BME280_temperature;BME280_humidity;BME280_pressure;Samples;Min_cycle;Max_cycle;Signal;HPM_P1;HPM_P2
2021/09/05 00:01:17;;;;;;;28.48;18.85;;;;;;;;;;5037822;28;20490;-65
2021/09/05 00:03:43;;;;;;;30.25;19.60;;;;;;;;;;5037482;28;20127;-66
2021/09/05 00:06:09;;;;;;;30.75;20.35;;;;;;;;;;5055597;28;20040;-65
2021/09/05 00:08:35;;;;;;;30.42;20.50;;;;;;;;;;5037433;28;20033;-65
2021/09/05 00:11:01;;;;;;;32.95;21.05;;;;;;;;;;5055526;28;20032;-67
2021/09/05 00:13:27;;;;;;;30.73;20.55;;;;;;;;;;5037467;28;20448;-66
2021/09/05 00:15:53;;;;;;;29.70;19.50;;;;;;;;;;5055613;28;20028;-66
2021/09/05 00:18:19;;;;;;;31.45;20.15;;;;;;;;;;5037521;28;20035;-67
2021/09/05 00:20:45;;;;;;;29.83;21.77;;;;;;;;;;5037637;28;20021;-67
2021/09/05 00:23:13;;;;;;;34.20;22.10;;;;;;;;;;5037345;28;20029;-66
2021/09/05 00:25:39;;;;;;;31.40;20.92;;;;;;;;;;5037401;28;20107;-66
2021/09/05 00:28:06;;;;;;;30.98;20.52;;;;;;;;;;5037380;28;20041;-66
2021/09/05 00:30:32;;;;;;;29.73;20.70;;;;;;;;;;5037697;28;20404;-66
2021/09/05 00:32:59;;;;;;;27.48;19.85;;;;;;;;;;5037560;28;20029;-67
2021/09/05 00:35:25;;;;;;;60.70;46.47;;;;;;;;;;5054910;28;20024;-66
2021/09/05 00:37:51;;;;;;;39.08;29.75;;;;;;;;;;5055201;28;20492;-67
2021/09/05 00:40:16;;;;;;;33.80;24.00;;;;;;;;;;5036966;28;20033;-67
2021/09/05 00:42:42;;;;;;;29.10;20.80;;;;;;;;;;5054982;28;20032;-66
2021/09/05 00:45:09;;;;;;;34.85;27.33;;;;;;;;;;5036910;28;20063;-66
2021/09/05 00:47:35;;;;;;;36.42;24.23;;;;;;;;;;5036945;28;20025;-66
2021/09/05 00:50:01;;;;;;;33.47;25.63;;;;;;;;;;5036934;28;20028;-67
2021/09/05 00:52:27;;;;;;;34.10;24.25;;;;;;;;;;5037281;28;20469;-67
2021/09/05 00:54:53;;;;;;;40.70;29.30;;;;;;;;;;5037025;28;20032;-66
2021/09/05 00:57:19;;;;;;;33.80;22.75;;;;;;;;;;5036598;28;20029;-66
2021/09/05 00:59:48;;;;;;;34.03;24.33;;;;;;;;;;5036910;28;20053;-66
2021/09/05 01:02:14;;;;;;;32.63;22.75;;;;;;;;;;5054808;28;20369;-67
2021/09/05 01:04:40;;;;;;;32.75;22.00;;;;;;;;;;5054239;28;20396;-67
2021/09/05 01:07:07;;;;;;;30.98;20.80;;;;;;;;;;5036747;28;20025;-68
2021/09/05 01:09:34;;;;;;;30.23;21.02;;;;;;;;;;5036652;28;20068;-67
2021/09/05 01:12:00;;;;;;;34.42;18.92;;;;;;;;;;5036408;28;20076;-66
2021/09/05 01:14:27;;;;;;;26.73;18.23;;;;;;;;;;5054192;28;20532;-67
2021/09/05 01:16:53;;;;;;;29.80;19.17;;;;;;;;;;5053962;28;20557;-67
2021/09/05 01:19:20;;;;;;;27.20;18.35;;;;;;;;;;5020166;28;20036;-66
2021/09/05 01:21:47;;;;;;;26.50;17.77;;;;;;;;;;5036263;28;20021;-65
2021/09/05 01:24:14;;;;;;;27.27;18.73;;;;;;;;;;5053875;28;20485;-66
2021/09/05 01:26:42;;;;;;;28.80;19.33;;;;;;;;;;5054610;28;20025;-68
2021/09/05 01:29:09;;;;;;;31.98;19.65;;;;;;;;;;5054286;28;20021;-67
2021/09/05 01:31:36;;;;;;;33.08;19.63;;;;;;;;;;5054237;28;20104;-67
2021/09/05 01:34:02;;;;;;;27.25;18.38;;;;;;;;;;5053766;28;20100;-67
2021/09/05 01:36:28;;;;;;;29.40;19.25;;;;;;;;;;5035961;28;20386;-67
2021/09/05 01:38:54;;;;;;;31.60;18.83;;;;;;;;;;5035655;28;20029;-65
2021/09/05 01:41:20;;;;;;;29.38;19.65;;;;;;;;;;5036006;28;20071;-66
2021/09/05 01:43:46;;;;;;;30.02;20.27;;;;;;;;;;5035641;28;20489;-66
2021/09/05 01:46:12;;;;;;;32.50;20.92;;;;;;;;;;5036259;28;20024;-67
2021/09/05 01:48:38;;;;;;;28.48;19.17;;;;;;;;;;5036184;28;20523;-66
2021/09/05 01:51:04;;;;;;;31.67;19.92;;;;;;;;;;5036086;28;20028;-66
2021/09/05 01:53:30;;;;;;;29.55;18.65;;;;;;;;;;5049116;28;20515;-64
2021/09/05 01:55:56;;;;;;;26.75;18.92;;;;;;;;;;5035867;28;20055;-66
2021/09/05 01:58:24;;;;;;;32.05;19.10;;;;;;;;;;5053310;28;20029;-67
2021/09/05 02:00:50;;;;;;;29.27;19.58;;;;;;;;;;5053313;28;20108;-66
2021/09/05 02:03:16;;;;;;;27.35;19.35;;;;;;;;;;5035856;28;20021;-65
2021/09/05 02:05:42;;;;;;;32.72;20.17;;;;;;;;;;5034650;28;20499;-66
2021/09/05 02:08:08;;;;;;;28.98;19.85;;;;;;;;;;5035275;28;20029;-66
2021/09/05 02:10:34;;;;;;;30.45;18.58;;;;;;;;;;5035530;28;20025;-66
2021/09/05 02:13:00;;;;;;;28.63;20.70;;;;;;;;;;5053466;28;20064;-66
2021/09/05 02:15:25;;;;;;;31.40;19.42;;;;;;;;;;5035247;28;20052;-67
2021/09/05 02:17:51;;;;;;;32.42;20.58;;;;;;;;;;5052844;28;20459;-65
2021/09/05 02:20:17;;;;;;;29.98;18.85;;;;;;;;;;5035614;28;20021;-66
2021/09/05 02:22:43;;;;;;;29.95;18.08;;;;;;;;;;5053118;28;20047;-66
2021/09/05 02:25:10;;;;;;;33.67;20.58;;;;;;;;;;5034943;28;20067;-66
2021/09/05 02:27:36;;;;;;;32.17;20.25;;;;;;;;;;5035207;28;20079;-66
2021/09/05 02:30:01;;;;;;;31.52;20.15;;;;;;;;;;5035070;28;20025;-67
2021/09/05 02:32:27;;;;;;;31.83;19.67;;;;;;;;;;5035385;28;20028;-66
2021/09/05 02:34:53;;;;;;;31.63;18.98;;;;;;;;;;5034924;28;20472;-66
2021/09/05 02:37:19;;;;;;;31.02;19.73;;;;;;;;;;5035047;28;20040;-66
2021/09/05 02:39:45;;;;;;;31.20;18.45;;;;;;;;;;5052831;28;20380;-66
2021/09/05 02:42:11;;;;;;;27.35;18.25;;;;;;;;;;5052765;28;20021;-67
2021/09/05 02:44:37;;;;;;;29.10;18.90;;;;;;;;;;5052463;28;20029;-67
2021/09/05 02:47:03;;;;;;;30.73;18.88;;;;;;;;;;5052971;28;20103;-66
2021/09/05 02:49:29;;;;;;;27.50;17.95;;;;;;;;;;5034605;28;20499;-66
2021/09/05 02:51:55;;;;;;;33.13;19.13;;;;;;;;;;5034610;28;20025;-66
2021/09/05 02:54:21;;;;;;;30.00;19.00;;;;;;;;;;5033951;28;20392;-66
2021/09/05 02:56:47;;;;;;;32.67;20.42;;;;;;;;;;5052261;28;20112;-66
2021/09/05 02:59:14;;;;;;;31.42;18.73;;;;;;;;;;5052364;28;20452;-65
2021/09/05 03:01:40;;;;;;;27.27;17.98;;;;;;;;;;5052605;28;20040;-67
2021/09/05 03:04:06;;;;;;;29.77;19.23;;;;;;;;;;5034383;28;20473;-66
2021/09/05 03:06:32;;;;;;;28.38;19.83;;;;;;;;;;5034702;28;20123;-66
2021/09/05 03:08:58;;;;;;;36.13;20.35;;;;;;;;;;5034610;28;20056;-68
2021/09/05 03:11:24;;;;;;;34.40;21.85;;;;;;;;;;5052695;28;20025;-66
2021/09/05 03:13:50;;;;;;;29.98;19.30;;;;;;;;;;5050919;28;20122;-66
2021/09/05 03:16:16;;;;;;;38.10;20.48;;;;;;;;;;5033303;28;20033;-67
2021/09/05 03:18:42;;;;;;;30.60;20.40;;;;;;;;;;5032905;28;20451;-67
2021/09/05 03:21:08;;;;;;;32.28;19.48;;;;;;;;;;5052369;28;20025;-68
2021/09/05 03:23:34;;;;;;;28.83;18.98;;;;;;;;;;5033940;28;20116;-67
2021/09/05 03:26:00;;;;;;;34.50;19.60;;;;;;;;;;5051572;28;20100;-67
2021/09/05 03:28:26;;;;;;;33.95;19.50;;;;;;;;;;5033939;28;20495;-65
2021/09/05 03:30:52;;;;;;;32.72;20.17;;;;;;;;;;5033738;28;20453;-66
2021/09/05 03:33:18;;;;;;;29.90;19.95;;;;;;;;;;5051510;28;20075;-66
2021/09/05 03:35:43;;;;;;;27.92;18.83;;;;;;;;;;5051833;28;20021;-65
2021/09/05 03:38:09;;;;;;;28.35;19.13;;;;;;;;;;5052113;28;20064;-64
2021/09/05 03:40:36;;;;;;;28.77;19.58;;;;;;;;;;5033907;28;20021;-66
2021/09/05 03:43:02;;;;;;;30.55;20.05;;;;;;;;;;5052123;28;20024;-67
2021/09/05 03:45:28;;;;;;;30.50;19.10;;;;;;;;;;5052001;28;20432;-66
2021/09/05 03:47:53;;;;;;;27.38;18.70;;;;;;;;;;5034667;28;20124;-66
2021/09/05 03:50:20;;;;;;;31.35;18.50;;;;;;;;;;5034377;28;20119;-66
2021/09/05 03:52:46;;;;;;;27.35;18.45;;;;;;;;;;5051945;28;20107;-66
2021/09/05 03:55:12;;;;;;;28.33;16.73;;;;;;;;;;5033219;28;20025;-66
2021/09/05 03:57:38;;;;;;;27.38;18.02;;;;;;;;;;5051604;28;20538;-63
2021/09/05 04:00:04;;;;;;;31.25;19.65;;;;;;;;;;5034011;28;20025;-67
2021/09/05 04:02:30;;;;;;;29.42;18.40;;;;;;;;;;5051791;28;20028;-66
2021/09/05 04:04:56;;;;;;;30.40;18.42;;;;;;;;;;5033687;28;20469;-66
2021/09/05 04:07:22;;;;;;;27.63;18.95;;;;;;;;;;5034025;28;20040;-66
2021/09/05 04:12:33;;;;;;;31.75;18.33;;;;;;;;;;5051592;28;20086;-66
2021/09/05 04:14:58;;;;;;;28.40;18.38;;;;;;;;;;5033543;28;20067;-66
2021/09/05 04:17:24;;;;;;;29.83;18.58;;;;;;;;;;5034662;28;20025;-66
2021/09/05 04:19:50;;;;;;;30.23;18.33;;;;;;;;;;5033954;28;20119;-66
2021/09/05 04:22:16;;;;;;;28.50;17.98;;;;;;;;;;5033985;28;20457;-66
2021/09/05 04:24:42;;;;;;;26.70;17.45;;;;;;;;;;5033853;28;20028;-66
2021/09/05 04:27:08;;;;;;;28.38;18.98;;;;;;;;;;5033749;28;20017;-67
2021/09/05 04:29:34;;;;;;;29.00;18.48;;;;;;;;;;5052791;28;20091;-66
2021/09/05 04:32:00;;;;;;;28.00;18.58;;;;;;;;;;5037567;28;20443;-67
2021/09/05 04:34:26;;;;;;;26.35;17.73;;;;;;;;;;5036862;28;20021;-67
2021/09/05 04:36:52;;;;;;;29.52;19.83;;;;;;;;;;5037982;28;20033;-67
2021/09/05 04:39:18;;;;;;;31.48;19.08;;;;;;;;;;5055221;28;20079;-67
2021/09/05 04:41:46;;;;;;;30.63;19.42;;;;;;;;;;5055247;28;20051;-67
2021/09/05 04:44:12;;;;;;;30.30;18.50;;;;;;;;;;5054926;28;20020;-69
2021/09/05 04:46:38;;;;;;;30.25;19.58;;;;;;;;;;5037058;28;20051;-67
2021/09/05 04:49:04;;;;;;;29.83;19.48;;;;;;;;;;5036667;28;20029;-67
2021/09/05 04:51:30;;;;;;;30.48;19.38;;;;;;;;;;5054847;28;20032;-67
2021/09/05 04:53:56;;;;;;;27.38;17.88;;;;;;;;;;5036335;28;20061;-67
2021/09/05 04:56:22;;;;;;;28.48;18.73;;;;;;;;;;5036937;28;20044;-66
2021/09/05 04:58:48;;;;;;;28.98;17.42;;;;;;;;;;5054589;28;20468;-67
2021/09/05 05:01:14;;;;;;;30.25;17.92;;;;;;;;;;5036662;28;20024;-67
2021/09/05 05:03:40;;;;;;;27.33;18.80;;;;;;;;;;5036607;28;20317;-66
2021/09/05 05:06:06;;;;;;;30.25;18.85;;;;;;;;;;5078122;22;20052;-65
2021/09/05 05:08:33;;;;;;;30.77;19.92;;;;;;;;;;5036019;28;20033;-66
2021/09/05 05:10:59;;;;;;;27.52;18.38;;;;;;;;;;5053631;28;20036;-67
2021/09/05 05:13:25;;;;;;;29.83;18.20;;;;;;;;;;5036132;28;20040;-67
2021/09/05 05:15:52;;;;;;;28.42;17.60;;;;;;;;;;5053816;28;20020;-66
2021/09/05 05:18:20;;;;;;;29.08;19.35;;;;;;;;;;5053959;28;20495;-66
2021/09/05 05:20:46;;;;;;;28.63;18.45;;;;;;;;;;5031296;28;20013;-66
2021/09/05 05:23:12;;;;;;;26.45;16.55;;;;;;;;;;5027047;28;20024;-66
2021/09/05 05:25:38;;;;;;;29.80;18.95;;;;;;;;;;5035808;28;20021;-66
2021/09/05 05:28:04;;;;;;;29.27;20.15;;;;;;;;;;5053754;28;20028;-65
2021/09/05 05:30:30;;;;;;;30.85;18.63;;;;;;;;;;5042796;28;20029;-66
2021/09/05 05:32:58;;;;;;;27.77;17.85;;;;;;;;;;5053614;28;20029;-65
2021/09/05 05:35:24;;;;;;;27.55;17.33;;;;;;;;;;5053296;28;20496;-66
2021/09/05 05:37:50;;;;;;;26.20;16.60;;;;;;;;;;5046255;28;20029;-66
2021/09/05 05:40:22;;;;;;;30.65;18.80;;;;;;;;;;5033489;28;20036;-66
2021/09/05 05:42:48;;;;;;;30.50;20.83;;;;;;;;;;5033488;28;20485;-66
2021/09/05 05:45:17;;;;;;;27.20;17.48;;;;;;;;;;5033347;28;20033;-66
2021/09/05 05:47:42;;;;;;;;;;;;;;;;;;5034219;28;20029;-66
2021/09/05 05:50:09;;;;;;;28.33;17.38;;;;;;;;;;5016198;28;20416;-66
2021/09/05 05:52:34;;;;;;;28.02;18.63;;;;;;;;;;5034620;28;20033;-66
2021/09/05 05:55:00;;;;;;;27.40;16.80;;;;;;;;;;5033831;28;20025;-66
2021/09/05 05:57:26;;;;;;;29.52;18.20;;;;;;;;;;5033216;28;20029;-66
2021/09/05 05:59:53;;;;;;;24.90;16.85;;;;;;;;;;5033219;28;20117;-65
2021/09/05 06:02:19;;;;;;;24.08;17.92;;;;;;;;;;5015563;28;20371;-66
2021/09/05 06:04:45;;;;;;;27.83;18.27;;;;;;;;;;5015152;28;20079;-66
2021/09/05 06:07:11;;;;;;;26.02;18.50;;;;;;;;;;5032973;28;20124;-66
2021/09/05 06:09:40;;;;;;;28.25;17.58;;;;;;;;;;5033166;28;20064;-65
2021/09/05 06:12:07;;;;;;;28.08;19.80;;;;;;;;;;5016532;28;20057;-65
2021/09/05 06:14:33;;;;;;;27.52;17.95;;;;;;;;;;5032611;28;20569;-64
2021/09/05 06:16:59;;;;;;;24.70;18.23;;;;;;;;;;5032909;28;20109;-65
2021/09/05 06:19:25;;;;;;;28.42;17.98;;;;;;;;;;5032740;28;20541;-65
2021/09/05 06:21:51;;;;;;;26.45;18.35;;;;;;;;;;5040014;28;20100;-66
2021/09/05 06:24:17;;;;;;;24.10;18.65;;;;;;;;;;5034468;28;20028;-66
2021/09/05 06:26:43;;;;;;;27.08;18.52;;;;;;;;;;5034738;28;20025;-66
2021/09/05 06:29:09;;;;;;;28.40;17.63;;;;;;;;;;5034797;28;20119;-66
2021/09/05 06:31:35;;;;;;;28.10;18.23;;;;;;;;;;5035017;28;20029;-65
2021/09/05 06:34:01;;;;;;;27.00;18.60;;;;;;;;;;5033707;28;20037;-65
2021/09/05 06:36:27;;;;;;;26.00;17.25;;;;;;;;;;5032521;28;20030;-65
2021/09/05 06:38:53;;;;;;;24.15;17.40;;;;;;;;;;5032705;28;20025;-64
2021/09/05 06:41:19;;;;;;;24.52;16.88;;;;;;;;;;5014941;28;20022;-66
2021/09/05 06:43:45;;;;;;;25.67;18.02;;;;;;;;;;5014716;28;20028;-65
2021/09/05 06:46:12;;;;;;;30.95;17.00;;;;;;;;;;5032511;28;20029;-61
2021/09/05 06:48:38;;;;;;;24.70;17.13;;;;;;;;;;5015807;28;20443;-65
2021/09/05 06:51:04;;;;;;;24.77;18.15;;;;;;;;;;5032560;28;20055;-63
2021/09/05 06:53:30;;;;;;;29.27;19.35;;;;;;;;;;5014336;28;20032;-59
2021/09/05 06:55:56;;;;;;;25.98;17.98;;;;;;;;;;5038834;28;20435;-63
2021/09/05 06:58:22;;;;;;;25.25;18.10;;;;;;;;;;5052227;28;20025;-63
2021/09/05 07:00:48;;;;;;;26.13;17.95;;;;;;;;;;5052325;28;20021;-63
2021/09/05 07:03:14;;;;;;;26.00;17.10;;;;;;;;;;5051734;28;20540;-62
2021/09/05 07:05:41;;;;;;;27.75;19.42;;;;;;;;;;5033726;28;20040;-63
2021/09/05 07:08:07;;;;;;;26.08;19.73;;;;;;;;;;5052046;28;20526;-63
2021/09/05 07:10:33;;;;;;;24.60;17.92;;;;;;;;;;5051983;28;20025;-63
2021/09/05 07:12:59;;;;;;;27.90;19.70;;;;;;;;;;5033971;28;20025;-63
2021/09/05 07:15:25;;;;;;;26.63;18.73;;;;;;;;;;5051573;28;20025;-63
2021/09/05 07:17:50;;;;;;;27.05;18.35;;;16.20;99.90;;;;;;5051750;28;20032;-63
2021/09/05 07:20:16;;;;;;;26.98;19.20;;;14.60;99.90;;;;;;5051493;28;20082;-62
2021/09/05 07:22:42;;;;;;;26.13;18.27;;;;;;;;;;5033625;28;20025;-63
2021/09/05 07:25:08;;;;;;;25.30;18.73;;;;;;;;;;5027832;28;20508;-62
2021/09/05 07:27:35;;;;;;;25.45;17.30;;;;;;;;;;5040824;28;20026;-62
2021/09/05 07:30:01;;;;;;;25.48;17.27;;;;;;;;;;5023710;28;20142;-62
2021/09/05 07:32:26;;;;;;;25.63;17.60;;;;;;;;;;5024499;28;20049;-62
2021/09/05 07:34:52;;;;;;;25.20;18.15;;;;;;;;;;5026055;28;20358;-63
2021/09/05 07:37:18;;;;;;;28.38;18.58;;;;;;;;;;5039603;28;20036;-62
2021/09/05 07:39:44;;;;;;;26.10;18.85;;;;;;;;;;5013903;28;20040;-63
2021/09/05 07:42:10;;;;;;;26.33;19.17;;;;;;;;;;5031714;28;20045;-63
2021/09/05 07:44:36;;;;;;;25.42;18.77;;;;;;;;;;5031338;28;20044;-62
2021/09/05 07:47:02;;;;;;;27.35;18.50;;;;;;;;;;5044044;28;20051;-63
2021/09/05 07:49:28;;;;;;;24.67;18.52;;;;;;;;;;5033419;28;20029;-62
2021/09/05 07:51:55;;;;;;;27.10;19.52;;;;;;;;;;5051725;28;20021;-60
2021/09/05 07:54:21;;;;;;;27.67;19.33;;;;;;;;;;5051170;28;20035;-62
2021/09/05 07:56:47;;;;;;;28.88;18.83;;;;;;;;;;5051602;28;20151;-63
2021/09/05 07:59:12;;;;;;;31.15;20.10;;;;;;;;;;5051544;28;20104;-63
2021/09/05 08:01:38;;;;;;;25.75;19.40;;;;;;;;;;5033593;28;20476;-63
2021/09/05 08:04:05;;;;;;;28.20;19.85;;;;;;;;;;5051686;28;20033;-63
2021/09/05 08:06:31;;;;;;;28.48;20.98;;;;;;;;;;5037270;28;20047;-63
2021/09/05 08:08:58;;;;;;;26.88;19.48;;;;;;;;;;5055433;28;20024;-63
2021/09/05 08:11:24;;;;;;;29.40;20.05;;;;;;;;;;5054916;28;20021;-63
2021/09/05 08:13:50;;;;;;;31.52;20.17;;;;;;;;;;5053117;28;20396;-63
2021/09/05 08:16:16;;;;;;;26.95;20.10;;;;;;;;;;5053864;28;20055;-63
2021/09/05 08:18:42;;;;;;;25.63;20.10;;;;;;;;;;5036008;28;20040;-67
2021/09/05 08:21:09;;;;;;;28.20;19.77;;;;;;;;;;5053952;28;20036;-65
2021/09/05 08:23:36;;;;;;;28.45;20.65;;;;;;;;;;5036014;28;20075;-66
2021/09/05 08:26:03;;;;;;;30.63;21.85;;;;;;;;;;5054661;28;20024;-64
2021/09/05 08:28:29;;;;;;;28.17;20.73;;;;;;;;;;5055019;28;20020;-64
2021/09/05 08:30:55;;;;;;;27.23;20.30;;;;;;;;;;5055079;28;20500;-64
2021/09/05 08:33:21;;;;;;;26.95;20.10;;;;;;;;;;5036599;28;20025;-65
2021/09/05 08:35:47;;;;;;;26.85;20.17;;;;;;;;;;5035233;28;20171;-64
2021/09/05 08:38:13;;;;;;;29.35;21.05;;;;;;;;;;5054607;28;20079;-64
2021/09/05 08:40:41;;;;;;;29.15;20.80;;;;;;;;;;5054731;28;20075;-63
2021/09/05 08:43:07;;;;;;;33.65;22.20;;;;;;;;;;5054777;28;20052;-65
2021/09/05 08:45:34;;;;;;;26.40;21.50;;;;;;;;;;5036417;28;20507;-64
2021/09/05 08:48:01;;;;;;;27.85;19.95;;;;;;;;;;5036450;28;20024;-64
2021/09/05 08:50:27;;;;;;;27.95;20.45;;;;;;;;;;5052401;28;20484;-64
2021/09/05 08:52:53;;;;;;;28.17;21.42;;;;;;;;;;5036614;28;20029;-64
2021/09/05 08:55:19;;;;;;;27.95;20.98;;;;;;;;;;5054211;28;20033;-66
2021/09/05 08:57:45;;;;;;;28.98;21.77;;;;;;;;;;5036268;28;20029;-65
2021/09/05 09:00:11;;;;;;;26.92;20.40;;;;;;;;;;5054279;28;20035;-65
2021/09/05 09:02:47;;;;;;;28.25;21.75;;;;;;;;;;5054803;28;20072;-65
2021/09/05 09:05:14;;;;;;;29.42;20.65;;;;;;;;;;5053072;28;20033;-65
2021/09/05 09:07:44;;;;;;;27.38;21.27;;;;;;;;;;5017109;28;20040;-64
2021/09/05 09:10:10;;;;;;;27.85;22.05;;;;;;;;;;5034310;28;20026;-64
2021/09/05 09:12:38;;;;;;;27.77;21.13;;;;;;;;;;5034507;28;20692;-62
2021/09/05 09:15:17;;;;;;;26.35;21.27;;;;;;;;;;5033655;28;20022;-65
2021/09/05 09:17:42;;;;;;;26.77;21.50;;;;;;;;;;5016987;28;20060;-64
2021/09/05 09:20:09;;;;;;;29.25;22.50;;;;;;;;;;5034134;28;20061;-64
2021/09/05 09:22:35;;;;;;;26.70;21.00;;;;;;;;;;5027789;28;20075;-65
2021/09/05 09:25:01;;;;;;;28.65;21.60;;;;;;;;;;5015855;28;20559;-65
2021/09/05 09:27:27;;;;;;;28.83;20.85;;;;;;;;;;5033886;28;20099;-65
2021/09/05 09:29:56;;;;;;;27.45;21.60;;;;;;;;;;5034361;28;20100;-65
2021/09/05 09:32:23;;;;;;;30.50;21.73;;;;;;;;;;5034215;28;20021;-65
2021/09/05 09:34:50;;;;;;;27.45;21.63;;;;;;;;;;5016321;28;20065;-66
2021/09/05 09:37:17;;;;;;;27.85;21.63;;;;;;;;;;5040661;28;20557;-66
2021/09/05 09:39:44;;;;;;;28.25;22.35;;;;;;;;;;5035597;28;20059;-65
2021/09/05 09:42:29;;;;;;;26.48;22.27;;;;;;;;;;5053576;28;20460;-65
2021/09/05 09:44:55;;;;;;;28.38;23.25;;;;;;;;;;5053237;28;20028;-66
2021/09/05 09:47:21;;;;;;;28.35;21.63;;;;;;;;;;5053440;28;20017;-65
2021/09/05 09:49:48;;;;;;;27.70;21.92;;;;;;;;;;5053348;28;20029;-64
2021/09/05 09:52:15;;;;;;;28.88;22.63;;;;;;;;;;5033972;28;20079;-65
2021/09/05 09:54:42;;;;;;;28.25;21.58;;;;;;;;;;5047186;28;20025;-65
2021/09/05 09:57:08;;;;;;;27.60;21.90;;;;;;;;;;5040483;28;20079;-64
2021/09/05 09:59:34;;;;;;;26.17;22.25;;;;;;;;;;5040138;28;20408;-64
2021/09/05 10:02:00;;;;;;;31.70;24.92;;;;;;;;;;5042511;28;20025;-65
2021/09/05 10:04:28;;;;;;;26.80;22.50;;;;;;;;;;5022684;28;20024;-66
2021/09/05 10:06:55;;;;;;;27.80;22.42;;;;;;;;;;5043507;28;20036;-66
2021/09/05 10:09:21;;;;;;;25.80;21.63;;;;;;;;;;5015629;28;20095;-65
2021/09/05 10:11:47;;;;;;;26.27;21.77;;;;;;;;;;5033191;28;20037;-65
2021/09/05 10:14:14;;;;;;;28.02;22.70;;;;;;;;;;5015133;28;20512;-64
2021/09/05 10:16:43;;;;;;;25.85;22.58;;;;;;;;;;5046080;28;20554;-66
2021/09/05 10:19:09;;;;;;;29.33;22.15;;;;;;;;;;5052896;28;20485;-65
2021/09/05 10:21:36;;;;;;;25.27;21.97;;;;;;;;;;4695139;28;10000169;-65
2021/09/05 10:24:03;;;;;;;27.77;22.40;;;;;;;;;;5050082;28;20690;-65
2021/09/05 10:26:29;;;;;;;27.33;21.75;;;;;;;;;;5031863;28;20329;-65
2021/09/05 10:28:56;;;;;;;29.00;22.02;;;;;;;;;;5049846;28;20369;-67
2021/09/05 10:31:29;;;;;;;26.48;22.65;;;;;;;;;;5031563;28;20477;-66
2021/09/05 10:33:57;;;;;;;27.00;22.63;;;;;;;;;;5031763;28;20063;-65
2021/09/05 10:36:25;;;;;;;26.50;21.75;;;;;;;;;;5050399;28;20025;-65
2021/09/05 10:38:52;;;;;;;26.02;21.83;;;;;;;;;;5050123;28;20033;-64
2021/09/05 10:41:21;;;;;;;26.23;22.10;;;;;;;;;;5049043;28;20037;-64
2021/09/05 10:43:51;;;;;;;28.15;22.75;;;;;;;;;;5031691;28;20039;-66
2021/09/05 10:46:18;;;;;;;27.40;21.95;;;;;;;;;;5023751;28;20527;-67
2021/09/05 10:48:55;;;;;;;25.15;21.77;;;;;;;;;;5014776;28;20021;-66
2021/09/05 10:51:23;;;;;;;24.85;21.77;;;;;;;;;;5032539;28;20370;-65
2021/09/05 10:53:51;;;;;;;31.73;23.10;;;;;;;;;;5032793;28;20478;-65
2021/09/05 10:56:18;;;;;;;27.30;23.08;;;;;;;;;;5051715;28;20291;-66
2021/09/05 10:58:55;;;;;;;26.52;22.40;;;;;;;;;;5033614;28;20110;-66
2021/09/05 11:01:29;;;;;;;27.58;22.77;;;;;;;;;;5045014;28;20492;-66
2021/09/05 11:04:07;;;;;;;26.88;22.83;;;;;;;;;;5051874;28;20120;-65
2021/09/05 11:06:33;;;;;;;;;;;;;;;;;;5053516;28;20064;-66
2021/09/05 11:09:24;;;;;;;26.90;21.92;;;;;;;;;;5031646;28;19908;-67
2021/09/05 11:12:00;;;;;;;26.45;22.58;;;;;;;;;;5052022;28;20064;-66
2021/09/05 11:14:48;;;;;;;26.77;22.45;;;;;;;;;;5033068;28;20052;-66
2021/09/05 11:17:19;;;;;;;26.40;22.13;;;;;;;;;;5047662;28;20065;-67
2021/09/05 11:20:02;;;;;;;28.00;22.70;;;;;;;;;;5032391;28;20036;-67
2021/09/05 11:22:31;;;;;;;25.67;22.20;;;;;;;;;;5033709;28;20059;-67
2021/09/05 11:25:24;;;;;;;25.65;21.75;;;;;;;;;;5050833;28;20017;-67
2021/09/05 11:27:57;;;;;;;27.17;22.23;;;14.50;99.90;;;;;;5047972;28;20037;-68
2021/09/05 11:30:24;;;;;;;25.17;22.48;;;;;;;;;;5031957;28;20092;-67
2021/09/05 11:32:57;;;;;;;24.90;22.15;;;;;;;;;;5031613;28;20026;-67
2021/09/05 11:35:23;;;;;;;25.13;22.00;;;;;;;;;;5048808;28;20040;-67
2021/09/05 11:37:49;;;;;;;25.00;21.75;;;;;;;;;;5034632;28;20033;-68
2021/09/05 11:40:17;;;;;;;26.50;22.90;;;30.80;99.40;;;;;;5036958;28;20021;-68
2021/09/05 11:42:53;;;;;;;25.27;22.58;;;31.30;98.80;;;;;;5056847;28;20082;-68
2021/09/05 11:45:22;;;;;;;25.25;22.63;;;31.50;98.10;;;;;;5056410;28;20048;-68
2021/09/05 11:47:58;;;;;;;24.83;22.13;;;;;;;;;;5056598;28;20021;-68
2021/09/05 11:50:24;;;;;;;25.05;22.35;;;;;;;;;;5056066;28;20036;-69
2021/09/05 11:52:50;;;;;;;23.02;20.67;;;31.10;97.70;;;;;;5055825;28;20024;-68
2021/09/05 11:55:17;;;;;;;24.83;22.20;;;;;;;;;;5038648;28;20614;-69
2021/09/05 11:57:57;;;;;;;25.58;22.88;;;33.60;95.80;;;;;;5056661;28;20558;-69
2021/09/05 12:00:29;;;;;;;24.83;22.33;;;;;;;;;;5056102;28;20040;-68
2021/09/05 12:02:55;;;;;;;24.00;21.40;;;32.10;95.30;;;;;;5037460;28;20025;-68
2021/09/05 12:05:21;;;;;;;25.58;22.80;;;34.10;95.10;;;;;;5054743;28;20039;-68
2021/09/05 12:07:48;;;;;;;25.58;22.85;;;34.50;93.50;;;;;;5037022;28;20476;-68
2021/09/05 12:10:22;;;;;;;24.73;22.20;;;32.60;93.90;;;;;;5055027;28;20581;-68
2021/09/05 12:13:10;;;;;;;25.40;22.77;;;34.10;93.20;;;;;;5037243;28;20488;-68
2021/09/05 12:15:44;;;;;;;26.08;22.63;;;33.60;92.30;;;;;;5054956;28;20023;-68
2021/09/05 12:18:28;;;;;;;23.90;21.33;;;33.80;92.70;;;;;;5054914;28;20511;-68
2021/09/05 12:20:59;;;;;;;24.83;22.35;;;34.20;92.30;;;;;;5037511;28;20021;-69
2021/09/05 12:23:29;;;;;;;25.40;22.90;;;34.10;92.50;;;;;;4340265;28;10000703;-68
2021/09/05 12:26:01;;;;;;;25.00;22.40;;;33.20;92.50;;;;;;5051639;28;20074;-69
2021/09/05 12:28:32;;;;;;;25.20;22.50;;;33.20;92.40;;;;;;5052498;28;20024;-68
2021/09/05 12:31:05;;;;;;;25.55;22.95;;;;;;;;;;5032892;28;20029;-69
2021/09/05 12:33:33;;;;;;;26.08;22.83;;;34.30;92.20;;;;;;5032143;28;20053;-69
2021/09/05 12:36:04;;;;;;;25.15;22.55;;;35.20;91.00;;;;;;5014839;28;20033;-69
2021/09/05 12:38:31;;;;;;;25.35;22.73;;;;;;;;;;5031918;28;20026;-69
2021/09/05 12:41:05;;;;;;;24.65;22.15;;;;;;;;;;5032355;28;20584;-69
2021/09/05 12:43:43;;;;;;;23.67;21.27;;;;;;;;;;5032483;28;20496;-69
2021/09/05 12:46:09;;;;;;;25.10;22.55;;;;;;;;;;5032464;28;20053;-69
2021/09/05 12:48:37;;;;;;;24.92;22.42;;;35.00;91.50;;;;;;5014967;28;20028;-67
2021/09/05 12:51:09;;;;;;;25.50;23.00;;;35.40;88.60;;;;;;5031357;28;20501;-68
2021/09/05 12:53:36;;;;;;;25.83;23.13;;;34.00;87.60;;;;;;5014969;28;20029;-68
2021/09/05 12:56:02;;;;;;;24.45;21.95;;;33.00;89.20;;;;;;5045850;28;20035;-68
2021/09/05 12:58:28;;;;;;;24.75;22.25;;;31.30;90.20;;;;;;5052058;28;20021;-69
2021/09/05 13:00:53;;;;;;;24.45;21.98;;;33.00;88.70;;;;;;5038835;28;20033;-68
2021/09/05 13:03:19;;;;;;;24.60;22.08;;;32.20;90.50;;;;;;5014040;28;20029;-68
2021/09/05 13:05:45;;;;;;;24.95;22.40;;;32.50;89.50;;;;;;5031708;28;20065;-68
2021/09/05 13:08:11;;;;;;;25.23;22.63;;;;;;;;;;5014507;28;20029;-68
2021/09/05 13:10:37;;;;;;;24.27;21.83;;;32.80;88.50;;;;;;5047052;28;20040;-68
2021/09/05 13:13:03;;;;;;;24.92;22.33;;;34.30;88.90;;;;;;5054518;28;20420;-73
2021/09/05 13:15:30;;;;;;;24.67;22.17;;;34.90;88.40;;;;;;5035460;28;20115;-69
2021/09/05 13:17:56;;;;;;;24.95;22.38;;;32.90;88.70;;;;;;5034673;28;20025;-67
2021/09/05 13:20:22;;;;;;;25.52;22.90;;;;;;;;;;5052889;28;20435;-67
2021/09/05 13:22:48;;;;;;;25.33;22.83;;;32.30;88.30;;;;;;5021045;28;20443;-67
2021/09/05 13:25:14;;;;;;;26.15;23.55;;;34.10;90.40;;;;;;5051659;28;20041;-68
2021/09/05 13:27:40;;;;;;;24.65;22.15;;;34.20;87.70;;;;;;5019310;28;20032;-67
2021/09/05 13:30:07;;;;;;;25.30;22.70;;;34.30;87.70;;;;;;5016441;28;20120;-68
2021/09/05 13:32:33;;;;;;;25.58;23.08;;;35.60;87.00;;;;;;5033786;28;20029;-67
2021/09/05 13:34:59;;;;;;;24.55;22.05;;;34.90;87.70;;;;;;5015540;28;20033;-67
2021/09/05 13:37:25;;;;;;;24.73;22.20;;;34.20;86.20;;;;;;5033913;28;20033;-67
2021/09/05 13:39:51;;;;;;;24.70;22.20;;;34.00;87.50;;;;;;5021520;28;20021;-67
2021/09/05 13:42:17;;;;;;;24.02;21.63;;;34.60;87.80;;;;;;5033442;28;20021;-67
2021/09/05 13:44:43;;;;;;;25.33;22.73;;;35.10;87.50;;;;;;5015318;28;20044;-68
2021/09/05 13:47:08;;;;;;;24.17;21.75;;;35.80;84.40;;;;;;5033508;28;20032;-67
2021/09/05 13:49:34;;;;;;;24.35;21.85;;;36.10;84.70;;;;;;5033433;28;20042;-66
2021/09/05 13:51:59;;;;;;;24.58;22.00;;;36.00;83.20;;;;;;5033457;28;20036;-66
2021/09/05 13:54:25;;;;;;;24.70;22.20;;;36.90;83.20;;;;;;5032916;28;20112;-67
2021/09/05 13:56:51;;;;;;;25.40;22.70;;;36.90;83.90;;;;;;5016136;28;20453;-67
2021/09/05 13:59:17;;;;;;;23.77;21.38;;;37.00;81.40;;;;;;5052945;28;20044;-66
2021/09/05 14:01:43;;;;;;;23.93;21.47;;;36.70;81.20;;;;;;4684611;28;10000064;-67